createdAt,value
2022-10-07T00:01:23.845Z,4.1
2022-10-07T00:03:24.836Z,4.1
2022-10-07T00:05:26.489Z,4.1
2022-10-07T00:07:28.160Z,4.11
2022-10-07T00:09:30.108Z,4.1
2022-10-07T00:11:31.748Z,4.1
2022-10-07T00:13:33.173Z,4.1
2022-10-07T00:17:35.307Z,4.1
2022-10-07T00:19:36.451Z,4.1
2022-10-07T00:21:38.218Z,4.1
2022-10-07T00:23:39.433Z,4.1
2022-10-07T00:25:40.664Z,4.1
2022-10-07T00:27:42.356Z,4.1
2022-10-07T00:29:43.453Z,4.1
2022-10-07T00:35:47.840Z,4.1
2022-10-07T00:37:49.598Z,4.1
2022-10-07T00:39:50.672Z,4.1
2022-10-07T00:41:52.201Z,4.1
2022-10-07T00:43:53.164Z,4.1
2022-10-07T00:45:55.039Z,4.1
2022-10-07T00:49:58.109Z,4.1
2022-10-07T00:51:59.249Z,4.1
2022-10-07T00:54:00.549Z,4.09
2022-10-07T00:56:02.047Z,4.1
2022-10-07T00:58:03.834Z,4.1
2022-10-07T01:00:05.732Z,4.1
2022-10-07T01:02:07.646Z,4.1
2022-10-07T01:06:10.355Z,4.1
2022-10-07T01:08:11.882Z,4.1
2022-10-07T01:10:13.382Z,4.1
2022-10-07T01:12:14.590Z,4.1
2022-10-07T01:16:17.460Z,4.1
2022-10-07T01:18:19.302Z,4.1
2022-10-07T01:20:21.282Z,4.1
2022-10-07T01:22:23.029Z,4.1
2022-10-07T01:24:24.208Z,4.09
2022-10-07T01:26:25.365Z,4.09
2022-10-07T01:28:27.304Z,4.09
2022-10-07T01:32:30.208Z,4.09
2022-10-07T01:34:32.064Z,4.09
2022-10-07T01:36:33.332Z,4.09
2022-10-07T01:38:35.141Z,4.09
2022-10-07T01:39:19.090Z,4.09
2022-10-07T01:41:20.436Z,4.09
2022-10-07T01:43:21.872Z,4.09
2022-10-07T01:45:22.958Z,4.09
2022-10-07T01:47:24.259Z,4.09
2022-10-07T01:49:25.563Z,4.09
2022-10-07T01:53:28.266Z,4.09
2022-10-07T01:55:29.929Z,4.09
2022-10-07T01:59:33.447Z,4.09
2022-10-07T02:01:35.118Z,4.09
2022-10-07T02:05:37.935Z,4.09
2022-10-07T02:09:40.918Z,4.08
2022-10-07T02:11:41.968Z,4.09
2022-10-07T02:13:43.616Z,4.09
2022-10-07T02:15:45.286Z,4.08
2022-10-07T02:17:46.885Z,4.08
2022-10-07T02:19:47.622Z,4.08
2022-10-07T02:21:48.752Z,4.08
2022-10-07T02:25:52.221Z,4.08
2022-10-07T02:27:53.696Z,4.08
2022-10-07T02:29:55.329Z,4.08
2022-10-07T02:31:57.268Z,4.08
2022-10-07T02:33:59.219Z,4.08
2022-10-07T02:38:02.354Z,4.08
2022-10-07T02:42:06.064Z,4.08
2022-10-07T02:44:07.285Z,4.08
2022-10-07T02:46:08.334Z,4.08
2022-10-07T02:48:09.568Z,4.08
2022-10-07T02:52:12.875Z,4.08
2022-10-07T02:54:14.374Z,4.08
2022-10-07T02:56:15.849Z,4.08
2022-10-07T02:58:17.472Z,4.08
2022-10-07T03:00:19.230Z,4.08
2022-10-07T03:02:20.716Z,4.08
2022-10-07T03:04:21.774Z,4.08
2022-10-07T03:08:25.129Z,4.08
2022-10-07T03:10:26.832Z,4.08
2022-10-07T03:12:28.540Z,4.08
2022-10-07T03:14:30.048Z,4.08
2022-10-07T03:18:32.852Z,4.08
2022-10-07T03:20:34.309Z,4.08
2022-10-07T03:22:36.006Z,4.08
2022-10-07T03:24:37.569Z,4.07
2022-10-07T03:26:39.163Z,4.07
2022-10-07T03:28:40.991Z,4.08
2022-10-07T03:30:42.155Z,4.08
2022-10-07T03:34:44.737Z,4.08
2022-10-07T03:36:46.541Z,4.08
2022-10-07T03:40:49.084Z,4.07
2022-10-07T03:42:50.097Z,4.07
2022-10-07T03:44:51.738Z,4.07
2022-10-07T03:46:52.957Z,4.07
2022-10-07T03:50:56.172Z,4.07
2022-10-07T03:52:57.859Z,4.07
2022-10-07T03:54:59.352Z,4.07
2022-10-07T03:57:00.637Z,4.07
2022-10-07T04:01:03.446Z,4.07
2022-10-07T04:03:05.088Z,4.07
2022-10-07T04:05:06.489Z,4.07
2022-10-07T04:07:08.357Z,4.07
2022-10-07T04:09:09.488Z,4.07
2022-10-07T04:11:10.976Z,4.07
2022-10-07T04:13:12.807Z,4.07
2022-10-07T04:17:15.747Z,4.07
2022-10-07T04:19:17.015Z,4.06
2022-10-07T04:21:18.224Z,4.07
2022-10-07T04:23:19.417Z,4.07
2022-10-07T04:25:21.011Z,4.07
2022-10-07T04:29:23.403Z,4.06
2022-10-07T04:33:26.009Z,4.06
2022-10-07T04:35:27.364Z,4.06
2022-10-07T04:37:28.971Z,4.06
2022-10-07T04:39:49.219Z,4.06
2022-10-07T04:41:32.098Z,4.06
2022-10-07T04:43:33.860Z,4.06
2022-10-07T04:45:35.280Z,4.06
2022-10-07T04:49:38.765Z,4.06
2022-10-07T04:51:40.393Z,4.06
2022-10-07T04:53:41.502Z,4.06
2022-10-07T04:55:43.208Z,4.06
2022-10-07T04:59:46.071Z,4.06
2022-10-07T05:01:47.376Z,4.06
2022-10-07T05:03:48.729Z,4.06
2022-10-07T05:05:49.778Z,4.06
2022-10-07T05:07:51.524Z,4.06
2022-10-07T05:09:52.525Z,4.06
2022-10-07T05:11:54.445Z,4.06
2022-10-07T05:13:56.007Z,4.06
2022-10-07T05:15:57.261Z,4.06
2022-10-07T05:17:58.246Z,4.06
2022-10-07T05:20:00.108Z,4.06
2022-10-07T05:22:01.648Z,4.06
2022-10-07T05:24:02.779Z,4.06
2022-10-07T05:26:04.130Z,4.06
2022-10-07T05:28:05.973Z,4.06
2022-10-07T05:32:08.826Z,4.06
2022-10-07T05:34:10.515Z,4.06
2022-10-07T05:36:11.871Z,4.06
2022-10-07T05:38:13.554Z,4.06
2022-10-07T05:40:15.480Z,4.05
2022-10-07T05:44:18.161Z,4.06
2022-10-07T05:46:19.695Z,4.06
2022-10-07T05:48:21.231Z,4.05
2022-10-07T05:50:22.776Z,4.05
2022-10-07T05:52:23.794Z,4.06
2022-10-07T05:54:25.452Z,4.05
2022-10-07T05:58:28.759Z,4.06
2022-10-07T06:00:29.858Z,4.05
2022-10-07T06:02:31.764Z,4.05
2022-10-07T06:04:32.754Z,4.06
2022-10-07T06:06:34.432Z,4.05
2022-10-07T06:10:37.565Z,4.05
2022-10-07T06:12:39.233Z,4.05
2022-10-07T06:14:41.012Z,4.05
2022-10-07T06:16:42.871Z,4.05
2022-10-07T06:18:44.326Z,4.05
2022-10-07T06:20:45.396Z,4.05
2022-10-07T06:24:48.235Z,4.05
2022-10-07T06:26:49.618Z,4.05
2022-10-07T06:28:51.000Z,4.05
2022-10-07T06:30:52.372Z,4.05
2022-10-07T06:32:53.437Z,4.05
2022-10-07T06:36:55.751Z,4.05
2022-10-07T06:40:58.083Z,4.05
2022-10-07T06:42:59.412Z,4.04
2022-10-07T06:45:00.928Z,4.05
2022-10-07T06:47:02.120Z,4.04
2022-10-07T06:49:03.747Z,4.05
2022-10-07T06:51:05.157Z,4.04
2022-10-07T06:53:06.999Z,4.05
2022-10-07T06:57:26.669Z,4.05
2022-10-07T06:59:10.730Z,4.05
2022-10-07T07:01:12.196Z,4.04
2022-10-07T07:03:13.807Z,4.04
2022-10-07T07:05:14.818Z,4.04
2022-10-07T07:07:16.356Z,4.04
2022-10-07T07:09:17.928Z,4.04
2022-10-07T07:11:19.021Z,4.04
2022-10-07T07:15:21.705Z,4.05
2022-10-07T07:17:23.119Z,4.05
2022-10-07T07:19:24.329Z,4.05
2022-10-07T07:23:27.060Z,4.06
2022-10-07T07:25:28.298Z,4.05
2022-10-07T07:27:29.659Z,4.06
2022-10-07T07:29:30.589Z,4.06
2022-10-07T07:33:33.328Z,4.06
2022-10-07T07:35:35.036Z,4.06
2022-10-07T07:39:37.672Z,4.06
2022-10-07T07:41:39.190Z,4.07
2022-10-07T07:43:40.269Z,4.08
2022-10-07T07:45:41.417Z,4.08
2022-10-07T07:47:43.561Z,4.08
2022-10-07T07:49:44.316Z,4.08
2022-10-07T07:51:45.234Z,4.07
2022-10-07T07:55:47.827Z,4.08
2022-10-07T07:57:48.936Z,4.08
2022-10-07T07:59:50.363Z,4.08
2022-10-07T08:01:51.880Z,4.08
2022-10-07T08:05:54.625Z,4.08
2022-10-07T08:07:56.149Z,4.08
2022-10-07T08:09:57.776Z,4.08
2022-10-07T08:11:58.924Z,4.08
2022-10-07T08:14:00.140Z,4.08
2022-10-07T08:16:01.674Z,4.08
2022-10-07T08:18:03.354Z,4.09
2022-10-07T08:22:06.634Z,4.09
2022-10-07T08:24:07.737Z,4.1
2022-10-07T08:24:51.511Z,4.1
2022-10-07T08:26:52.438Z,4.1
2022-10-07T08:28:54.310Z,4.1
2022-10-07T08:30:56.127Z,4.11
2022-10-07T08:33:01.117Z,4.11
2022-10-07T08:34:58.792Z,4.13
2022-10-07T08:37:00.638Z,4.13
2022-10-07T08:39:02.389Z,4.14
2022-10-07T08:41:03.786Z,4.14
2022-10-07T08:43:04.762Z,4.14
2022-10-07T08:45:06.408Z,4.14
2022-10-07T08:49:09.163Z,4.15
2022-10-07T08:51:10.165Z,4.15
2022-10-07T08:53:11.988Z,4.15
2022-10-07T08:55:13.862Z,4.16
2022-10-07T08:59:17.041Z,4.16
2022-10-07T09:01:18.764Z,4.16
2022-10-07T09:03:24.892Z,4.16
2022-10-07T09:05:22.262Z,4.16
2022-10-07T09:07:23.923Z,4.17
2022-10-07T09:09:24.802Z,4.17
2022-10-07T09:11:26.111Z,4.17
2022-10-07T09:13:27.381Z,4.17
2022-10-07T09:15:28.492Z,4.17
2022-10-07T09:17:34.302Z,4.17
2022-10-07T09:19:32.574Z,4.17
2022-10-07T09:23:35.755Z,4.17
2022-10-07T09:25:37.303Z,4.18
2022-10-07T09:27:38.986Z,4.18
2022-10-07T09:31:42.139Z,4.18
2022-10-07T09:33:43.033Z,4.18
2022-10-07T09:35:44.759Z,4.19
2022-10-07T09:37:46.665Z,4.19
2022-10-07T09:41:49.062Z,4.19
2022-10-07T09:43:50.567Z,4.19
2022-10-07T09:45:52.059Z,4.19
2022-10-07T09:47:53.457Z,4.19
2022-10-07T09:51:56.467Z,4.19
2022-10-07T09:53:57.778Z,4.19
2022-10-07T09:58:00.782Z,4.19
2022-10-07T10:00:02.012Z,4.19
2022-10-07T10:02:04.479Z,4.19
2022-10-07T10:04:05.706Z,4.19
2022-10-07T10:06:06.827Z,4.19
2022-10-07T10:08:08.285Z,4.19
2022-10-07T10:10:10.282Z,4.2
2022-10-07T10:14:12.631Z,4.2
2022-10-07T10:16:14.365Z,4.2
2022-10-07T10:18:15.625Z,4.2
2022-10-07T10:20:17.023Z,4.2
2022-10-07T10:22:17.966Z,4.2
2022-10-07T10:24:19.729Z,4.2
2022-10-07T10:26:21.147Z,4.19
2022-10-07T10:28:22.147Z,4.18
2022-10-07T10:30:23.646Z,4.18
2022-10-07T10:32:24.826Z,4.18
2022-10-07T10:34:26.614Z,4.19
2022-10-07T10:36:27.829Z,4.18
2022-10-07T10:40:30.166Z,4.18
2022-10-07T10:42:31.447Z,4.18
2022-10-07T10:44:32.795Z,4.18
2022-10-07T10:46:34.019Z,4.18
2022-10-07T10:48:35.517Z,4.18
2022-10-07T10:50:37.143Z,4.18
2022-10-07T10:52:38.624Z,4.18
2022-10-07T10:54:39.434Z,4.18
2022-10-07T10:56:40.599Z,4.17
2022-10-07T10:58:41.759Z,4.18
2022-10-07T11:00:43.373Z,4.18
2022-10-07T11:02:45.155Z,4.17
2022-10-07T11:04:46.432Z,4.17
2022-10-07T11:06:47.247Z,4.17
2022-10-07T11:10:49.759Z,4.17
2022-10-07T11:12:51.355Z,4.17
2022-10-07T11:14:55.713Z,4.17
2022-10-07T11:16:54.087Z,4.17
2022-10-07T11:18:55.507Z,4.17
2022-10-07T11:20:57.363Z,4.17
2022-10-07T11:22:58.971Z,4.17
2022-10-07T11:25:00.499Z,4.17
2022-10-07T11:29:03.065Z,4.17
2022-10-07T11:31:04.125Z,4.17
2022-10-07T11:33:05.725Z,4.17
2022-10-07T11:35:07.078Z,4.17
2022-10-07T11:39:09.931Z,4.17
2022-10-07T11:41:10.808Z,4.17
2022-10-07T11:43:12.139Z,4.17
2022-10-07T11:45:13.735Z,4.17
2022-10-07T11:49:16.253Z,4.17
2022-10-07T11:51:17.924Z,4.17
2022-10-07T11:53:19.667Z,4.17
2022-10-07T11:55:21.232Z,4.17
2022-10-07T11:57:22.839Z,4.17
2022-10-07T11:59:24.032Z,4.17
2022-10-07T12:01:25.198Z,4.17
2022-10-07T12:05:27.359Z,4.17
2022-10-07T12:07:29.112Z,4.17
2022-10-07T12:09:30.707Z,4.16
2022-10-07T12:11:31.722Z,4.16
2022-10-07T12:15:34.348Z,4.16
2022-10-07T12:17:35.624Z,4.17
2022-10-07T12:21:39.058Z,4.16
2022-10-07T12:23:39.977Z,4.16
2022-10-07T12:25:40.983Z,4.16
2022-10-07T12:27:42.547Z,4.16
2022-10-07T12:29:43.806Z,4.16
2022-10-07T12:31:45.318Z,4.16
2022-10-07T12:33:46.871Z,4.16
2022-10-07T12:37:49.074Z,4.16
2022-10-07T12:39:50.815Z,4.16
2022-10-07T12:41:52.474Z,4.16
2022-10-07T12:45:54.842Z,4.16
2022-10-07T12:47:55.534Z,4.16
2022-10-07T12:49:57.137Z,4.16
2022-10-07T12:51:58.441Z,4.16
2022-10-07T12:54:00.092Z,4.16
2022-10-07T12:56:00.882Z,4.16
2022-10-07T13:00:03.017Z,4.16
2022-10-07T13:04:05.556Z,4.16
2022-10-07T13:06:07.156Z,4.16
2022-10-07T13:08:08.717Z,4.16
2022-10-07T13:10:09.951Z,4.16
2022-10-07T13:12:11.319Z,4.16
2022-10-07T13:14:12.356Z,4.16
2022-10-07T13:16:13.841Z,4.16
2022-10-07T13:18:15.380Z,4.16
2022-10-07T13:20:16.991Z,4.15
2022-10-07T13:22:18.138Z,4.15
2022-10-07T13:24:19.569Z,4.15
2022-10-07T13:26:21.049Z,4.16
2022-10-07T13:30:23.555Z,4.15
2022-10-07T13:32:24.409Z,4.15
2022-10-07T13:34:26.126Z,4.15
2022-10-07T13:36:27.452Z,4.15
2022-10-07T13:38:29.172Z,4.15
2022-10-07T13:40:30.701Z,4.15
2022-10-07T13:42:32.116Z,4.15
2022-10-07T13:46:34.476Z,4.15
2022-10-07T13:48:35.541Z,4.15
2022-10-07T13:52:37.876Z,4.15
2022-10-07T13:54:39.665Z,4.14
2022-10-07T13:56:40.976Z,4.15
2022-10-07T13:58:42.180Z,4.15
2022-10-07T14:02:45.203Z,4.15
2022-10-07T14:04:45.635Z,4.14
2022-10-07T14:06:47.220Z,4.14
2022-10-07T14:08:48.790Z,4.15
2022-10-07T14:10:49.943Z,4.14
2022-10-07T14:12:50.868Z,4.14
2022-10-07T14:14:52.323Z,4.15
2022-10-07T14:16:53.249Z,4.14
2022-10-07T14:20:55.637Z,4.14
2022-10-07T14:24:57.731Z,4.14
2022-10-07T14:26:58.752Z,4.14
2022-10-07T14:31:01.821Z,4.14
2022-10-07T14:33:03.226Z,4.14
2022-10-07T14:35:04.921Z,4.14
2022-10-07T14:39:07.219Z,4.14
2022-10-07T14:41:08.647Z,4.14
2022-10-07T14:43:10.203Z,4.14
2022-10-07T14:45:11.612Z,4.14
2022-10-07T14:47:12.881Z,4.14
2022-10-07T14:49:14.536Z,4.15
2022-10-07T14:51:15.797Z,4.15
2022-10-07T14:53:16.947Z,4.15
2022-10-07T14:57:19.066Z,4.15
2022-10-07T14:59:20.349Z,4.15
2022-10-07T15:03:23.046Z,4.14
2022-10-07T15:05:24.201Z,4.15
2022-10-07T15:07:25.767Z,4.14
2022-10-07T15:10:10.360Z,4.17
2022-10-07T15:12:11.506Z,4.17
2022-10-07T15:14:12.457Z,4.15
2022-10-07T15:16:14.231Z,4.15
2022-10-07T15:18:15.841Z,4.15
2022-10-07T15:20:17.198Z,4.15
2022-10-07T15:24:20.010Z,4.15
2022-10-07T15:26:21.440Z,4.14
2022-10-07T15:28:22.935Z,4.15
2022-10-07T15:30:23.797Z,4.17
2022-10-07T15:34:26.245Z,4.18
2022-10-07T15:36:27.289Z,4.18
2022-10-07T15:38:29.080Z,4.18
2022-10-07T15:40:30.279Z,4.19
2022-10-07T15:42:31.964Z,4.19
2022-10-07T15:44:32.797Z,4.19
2022-10-07T15:46:34.225Z,4.19
2022-10-07T15:50:36.700Z,4.19
2022-10-07T15:52:37.550Z,4.19
2022-10-07T15:54:39.188Z,4.18
2022-10-07T15:56:40.162Z,4.17
2022-10-07T15:58:41.763Z,4.17
2022-10-07T16:00:42.546Z,4.17
2022-10-07T16:02:44.510Z,4.17
2022-10-07T16:06:46.877Z,4.17
2022-10-07T16:08:48.627Z,4.17
2022-10-07T16:10:49.833Z,4.17
2022-10-07T16:12:51.217Z,4.17
2022-10-07T16:16:53.168Z,4.17
2022-10-07T16:18:54.925Z,4.16
2022-10-07T16:20:55.909Z,4.16
2022-10-07T16:22:57.496Z,4.16
2022-10-07T16:24:58.941Z,4.16
2022-10-07T16:29:02.160Z,4.16
2022-10-07T16:33:04.479Z,4.16
2022-10-07T16:35:05.700Z,4.16
2022-10-07T16:37:07.243Z,4.16
2022-10-07T16:39:08.734Z,4.16
2022-10-07T16:41:10.587Z,4.16
2022-10-07T16:43:11.622Z,4.16
2022-10-07T16:45:12.804Z,4.16
2022-10-07T16:49:15.983Z,4.16
2022-10-07T16:51:16.884Z,4.16
2022-10-07T16:53:17.924Z,4.16
2022-10-07T16:55:19.197Z,4.16
2022-10-07T16:57:20.770Z,4.16
2022-10-07T16:59:22.857Z,4.16
2022-10-07T17:01:23.581Z,4.16
2022-10-07T17:05:26.337Z,4.16
2022-10-07T17:07:27.806Z,4.16
2022-10-07T17:09:29.313Z,4.16
2022-10-07T17:11:30.606Z,4.16
2022-10-07T17:15:32.792Z,4.16
2022-10-07T17:17:34.089Z,4.16
2022-10-07T17:21:36.508Z,4.16
2022-10-07T17:23:38.070Z,4.16
2022-10-07T17:25:39.366Z,4.16
2022-10-07T17:27:40.909Z,4.16
2022-10-07T17:31:44.193Z,4.15
2022-10-07T17:33:45.401Z,4.15
2022-10-07T17:35:47.047Z,4.15
2022-10-07T17:37:48.585Z,4.15
2022-10-07T17:39:49.837Z,4.15
2022-10-07T17:41:51.288Z,4.16
2022-10-07T17:43:52.585Z,4.15
2022-10-07T17:47:55.068Z,4.15
2022-10-07T17:49:56.583Z,4.15
2022-10-07T17:51:58.312Z,4.15
2022-10-07T17:53:59.892Z,4.15
2022-10-07T17:58:02.374Z,4.15
2022-10-07T18:00:03.358Z,4.15
2022-10-07T18:02:05.056Z,4.15
2022-10-07T18:04:06.428Z,4.15
2022-10-07T18:08:08.363Z,4.15
2022-10-07T18:10:10.015Z,4.15
2022-10-07T18:12:11.270Z,4.14
2022-10-07T18:14:12.555Z,4.14
2022-10-07T18:16:13.865Z,4.14
2022-10-07T18:18:15.595Z,4.15
2022-10-07T18:20:17.037Z,4.14
2022-10-07T18:22:18.419Z,4.14
2022-10-07T18:24:20.117Z,4.15
2022-10-07T18:26:21.014Z,4.14
2022-10-07T18:30:23.299Z,4.14
2022-10-07T18:32:24.875Z,4.14
2022-10-07T18:34:25.859Z,4.14
2022-10-07T18:36:27.727Z,4.14
2022-10-07T18:40:30.167Z,4.14
2022-10-07T18:42:31.781Z,4.14
2022-10-07T18:44:33.499Z,4.14
2022-10-07T18:46:35.154Z,4.14
2022-10-07T18:48:36.272Z,4.14
2022-10-07T18:50:37.604Z,4.14
2022-10-07T18:52:38.975Z,4.14
2022-10-07T18:56:41.891Z,4.14
2022-10-07T18:58:43.231Z,4.14
2022-10-07T19:00:44.878Z,4.14
2022-10-07T19:02:46.043Z,4.14
2022-10-07T19:04:47.237Z,4.14
2022-10-07T19:06:48.972Z,4.14
2022-10-07T19:08:50.440Z,4.14
2022-10-07T19:12:53.578Z,4.14
2022-10-07T19:14:54.540Z,4.14
2022-10-07T19:16:55.627Z,4.13
2022-10-07T19:18:56.602Z,4.14
2022-10-07T19:20:58.395Z,4.14
2022-10-07T19:23:00.284Z,4.13
2022-10-07T19:25:01.828Z,4.13
2022-10-07T19:29:04.136Z,4.13
2022-10-07T19:31:05.974Z,4.13
2022-10-07T19:33:06.974Z,4.13
2022-10-07T19:35:07.900Z,4.13
2022-10-07T19:39:10.542Z,4.13
2022-10-07T19:41:11.713Z,4.13
2022-10-07T19:45:14.799Z,4.13
2022-10-07T19:47:16.457Z,4.13
2022-10-07T19:49:17.863Z,4.13
2022-10-07T19:51:19.533Z,4.13
2022-10-07T19:55:22.165Z,4.12
2022-10-07T19:57:23.651Z,4.13
2022-10-07T19:59:25.173Z,4.13
2022-10-07T20:01:27.002Z,4.13
2022-10-07T20:03:28.039Z,4.13
2022-10-07T20:05:29.170Z,4.13
2022-10-07T20:07:30.494Z,4.12
2022-10-07T20:11:33.693Z,4.13
2022-10-07T20:13:35.386Z,4.12
2022-10-07T20:15:36.956Z,4.13
2022-10-07T20:17:37.926Z,4.12
2022-10-07T20:21:41.012Z,4.12
2022-10-07T20:23:41.933Z,4.12
2022-10-07T20:25:43.384Z,4.12
2022-10-07T20:27:44.992Z,4.12
2022-10-07T20:29:46.154Z,4.12
2022-10-07T20:31:47.468Z,4.12
2022-10-07T20:33:48.358Z,4.12
2022-10-07T20:37:50.488Z,4.12
2022-10-07T20:39:52.112Z,4.12
2022-10-07T20:41:53.675Z,4.12
2022-10-07T20:43:54.705Z,4.12
2022-10-07T20:45:56.610Z,4.12
2022-10-07T20:47:57.556Z,4.12
2022-10-07T20:49:58.817Z,4.12
2022-10-07T20:54:01.354Z,4.12
2022-10-07T20:56:02.443Z,4.12
2022-10-07T20:58:04.090Z,4.12
2022-10-07T21:00:05.904Z,4.12
2022-10-07T21:02:09.248Z,4.12
2022-10-07T21:04:08.524Z,4.12
2022-10-07T21:06:09.915Z,4.12
2022-10-07T21:08:11.589Z,4.12
2022-10-07T21:10:12.816Z,4.12
2022-10-07T21:14:15.986Z,4.12
2022-10-07T21:16:17.311Z,4.12
2022-10-07T21:18:18.446Z,4.12
2022-10-07T21:22:21.679Z,4.12
2022-10-07T21:24:22.863Z,4.11
2022-10-07T21:26:23.993Z,4.11
2022-10-07T21:28:25.190Z,4.11
2022-10-07T21:30:26.325Z,4.11
2022-10-07T21:32:27.750Z,4.11
2022-10-07T21:36:31.058Z,4.11
2022-10-07T21:38:32.587Z,4.11
2022-10-07T21:40:34.037Z,4.11
2022-10-07T21:42:35.020Z,4.11
2022-10-07T21:44:36.235Z,4.11
2022-10-07T21:46:37.535Z,4.11
2022-10-07T21:48:38.819Z,4.11
2022-10-07T21:52:42.488Z,4.11
2022-10-07T21:54:44.394Z,4.11
2022-10-07T21:55:52.350Z,4.11
2022-10-07T21:57:53.712Z,4.11
2022-10-07T21:59:55.426Z,4.11
2022-10-07T22:01:57.178Z,4.11
2022-10-07T22:03:58.723Z,4.1
2022-10-07T22:08:00.899Z,4.11
2022-10-07T22:10:02.167Z,4.11
2022-10-07T22:12:03.692Z,4.11
2022-10-07T22:14:08.754Z,4.1
2022-10-07T22:16:07.245Z,4.1
2022-10-07T22:18:08.106Z,4.1
2022-10-07T22:20:09.308Z,4.1
2022-10-07T22:24:11.293Z,4.1
2022-10-07T22:26:12.687Z,4.1
2022-10-07T22:28:13.744Z,4.1
2022-10-07T22:30:15.331Z,4.1
2022-10-07T22:32:16.451Z,4.1
2022-10-07T22:34:17.882Z,4.1
2022-10-07T22:36:19.289Z,4.1
2022-10-07T22:40:22.285Z,4.1
2022-10-07T22:42:23.085Z,4.1
2022-10-07T22:44:24.427Z,4.1
2022-10-07T22:46:26.683Z,4.1
2022-10-07T22:48:28.126Z,4.1
2022-10-07T22:50:29.183Z,4.1
2022-10-07T22:52:30.141Z,4.1
2022-10-07T22:56:33.483Z,4.1
2022-10-07T22:58:35.268Z,4.1
2022-10-07T23:00:36.415Z,4.1
2022-10-07T23:02:37.792Z,4.1
2022-10-07T23:06:40.298Z,4.1
2022-10-07T23:08:41.371Z,4.1
2022-10-07T23:12:44.316Z,4.1
2022-10-07T23:14:45.104Z,4.1
2022-10-07T23:16:46.323Z,4.1
2022-10-07T23:18:47.502Z,4.1
2022-10-07T23:22:51.281Z,4.1
2022-10-07T23:24:52.900Z,4.1
2022-10-07T23:26:54.015Z,4.1
2022-10-07T23:28:55.329Z,4.1
2022-10-07T23:30:57.239Z,4.1
2022-10-07T23:34:59.314Z,4.09
2022-10-07T23:39:02.778Z,4.1
2022-10-07T23:41:03.902Z,4.1
2022-10-07T23:43:05.292Z,4.09
2022-10-07T23:45:06.400Z,4.09
2022-10-07T23:49:08.636Z,4.09
2022-10-07T23:51:10.449Z,4.09
2022-10-07T23:53:11.647Z,4.09
2022-10-07T23:55:13.513Z,4.09
2022-10-07T23:57:15.055Z,4.09
2022-10-07T23:59:16.620Z,4.09
